Time,TemperatureF,DewpointF,PressureIn,WindDirection,WindDirectionDegrees,WindSpeedMPH,WindSpeedGustMPH,Humidity,HourlyPrecipIn,Conditions,Clouds,dailyrainin,SoftwareType,DateUTC
2013-06-05 00:01:00,66.0,37.0,27.93,NE,45,0.0,0.0,35,0.00,,,0.00,Rainwise IP-100,2013-06-05 04:01:00,
2013-06-05 00:06:00,65.0,37.0,27.92,NE,45,0.0,0.0,36,0.00,,,0.00,Rainwise IP-100,2013-06-05 04:06:00,
2013-06-05 00:11:00,65.0,40.0,27.92,NE,45,0.0,0.0,40,0.00,,,0.00,Rainwise IP-100,2013-06-05 04:11:00,
2013-06-05 00:16:00,65.0,33.0,27.92,NE,45,0.0,0.0,30,0.00,,,0.00,Rainwise IP-100,2013-06-05 04:16:00,
2013-06-05 00:21:00,65.0,24.0,27.93,NE,45,0.0,0.0,21,0.00,,,0.00,Rainwise IP-100,2013-06-05 04:21:00,
2013-06-05 00:26:00,64.0,21.0,27.93,NE,45,0.0,0.0,19,0.00,,,0.00,Rainwise IP-100,2013-06-05 04:26:00,
2013-06-05 00:31:00,64.0,23.0,27.92,NE,45,0.0,0.0,20,0.00,,,0.00,Rainwise IP-100,2013-06-05 04:31:00,
2013-06-05 00:36:00,64.0,4.0,27.92,NE,45,0.0,0.0,8,0.00,,,0.00,Rainwise IP-100,2013-06-05 04:36:00,
2013-06-05 00:41:00,64.0,-23.0,27.92,NE,45,0.0,0.0,0,0.00,,,0.00,Rainwise IP-100,2013-06-05 04:41:00,
2013-06-05 00:46:00,63.0,-23.0,27.92,NE,45,0.0,0.0,0,0.00,,,0.00,Rainwise IP-100,2013-06-05 04:46:00,
2013-06-05 00:51:00,63.0,-23.0,27.92,NE,45,0.0,0.0,0,0.00,,,0.00,Rainwise IP-100,2013-06-05 04:51:00,
2013-06-05 00:56:00,63.0,-23.0,27.92,NE,45,0.0,0.0,0,0.00,,,0.00,Rainwise IP-100,2013-06-05 04:56:00,
2013-06-05 01:01:00,63.0,-23.0,27.93,NE,45,0.0,0.0,0,0.00,,,0.00,Rainwise IP-100,2013-06-05 05:01:00,
2013-06-05 01:06:00,63.0,-23.0,27.93,NE,45,0.0,0.0,0,0.00,,,0.00,Rainwise IP-100,2013-06-05 05:06:00,
2013-06-05 01:11:00,63.0,-23.0,27.92,NE,45,0.0,0.0,0,0.00,,,0.00,Rainwise IP-100,2013-06-05 05:11:00,
2013-06-05 01:16:00,63.0,-23.0,27.92,NE,45,0.0,0.0,0,0.00,,,0.00,Rainwise IP-100,2013-06-05 05:16:00,
2013-06-05 01:21:00,63.0,-23.0,27.92,NE,45,0.0,0.0,0,0.00,,,0.00,Rainwise IP-100,2013-06-05 05:21:00,
2013-06-05 01:26:00,62.0,-23.0,27.92,NE,45,0.0,0.0,0,0.00,,,0.00,Rainwise IP-100,2013-06-05 05:26:00,
2013-06-05 01:31:00,63.0,-23.0,27.92,NE,45,0.0,0.0,0,0.00,,,0.00,Rainwise IP-100,2013-06-05 05:31:00,
2013-06-05 01:36:00,62.0,-23.0,27.92,NE,45,0.0,0.0,0,0.00,,,0.00,Rainwise IP-100,2013-06-05 05:36:00,
2013-06-05 01:41:00,63.0,-23.0,27.93,NE,45,0.0,0.0,0,0.00,,,0.00,Rainwise IP-100,2013-06-05 05:41:00,
2013-06-05 01:46:00,63.0,-23.0,27.93,NE,45,0.0,0.0,0,0.00,,,0.00,Rainwise IP-100,2013-06-05 05:46:00,
2013-06-05 01:51:00,63.0,-23.0,27.93,NE,45,0.0,0.0,0,0.00,,,0.00,Rainwise IP-100,2013-06-05 05:51:00,
2013-06-05 01:56:00,63.0,-23.0,27.93,NE,45,0.0,0.0,0,0.00,,,0.00,Rainwise IP-100,2013-06-05 05:56:00,
2013-06-05 02:01:00,63.0,-23.0,27.93,NE,45,0.0,0.0,0,0.00,,,0.00,Rainwise IP-100,2013-06-05 06:01:00,
2013-06-05 02:06:00,63.0,-23.0,27.93,NE,45,0.0,0.0,0,0.00,,,0.00,Rainwise IP-100,2013-06-05 06:06:00,
2013-06-05 02:11:00,63.0,-23.0,27.93,NE,45,0.0,0.0,0,0.00,,,0.00,Rainwise IP-100,2013-06-05 06:11:00,
2013-06-05 02:16:00,63.0,-23.0,27.93,NE,45,0.0,0.0,0,0.00,,,0.00,Rainwise IP-100,2013-06-05 06:16:00,
2013-06-05 02:21:00,63.0,-23.0,27.93,NE,45,0.0,0.0,0,0.00,,,0.00,Rainwise IP-100,2013-06-05 06:21:00,
2013-06-05 02:26:00,63.0,-23.0,27.93,NE,45,0.0,0.0,0,0.00,,,0.00,Rainwise IP-100,2013-06-05 06:26:00,
2013-06-05 02:31:00,64.0,-23.0,27.92,NE,45,0.0,0.0,0,0.00,,,0.00,Rainwise IP-100,2013-06-05 06:31:00,
2013-06-05 02:36:00,63.0,-23.0,27.92,NE,45,0.0,0.0,0,0.00,,,0.00,Rainwise IP-100,2013-06-05 06:36:00,
2013-06-05 02:41:00,64.0,-23.0,27.91,NE,45,0.0,0.0,0,0.00,,,0.00,Rainwise IP-100,2013-06-05 06:41:00,
2013-06-05 02:46:00,64.0,-23.0,27.91,NE,45,0.0,0.0,0,0.00,,,0.00,Rainwise IP-100,2013-06-05 06:46:00,
2013-06-05 02:51:00,64.0,-23.0,27.91,NE,45,0.0,0.0,0,0.00,,,0.00,Rainwise IP-100,2013-06-05 06:51:00,
2013-06-05 02:56:00,64.0,-23.0,27.91,NE,45,0.0,0.0,0,0.00,,,0.00,Rainwise IP-100,2013-06-05 06:56:00,
2013-06-05 03:01:00,65.0,-23.0,27.90,NE,45,0.0,0.0,0,0.00,,,0.00,Rainwise IP-100,2013-06-05 07:01:00,
2013-06-05 03:06:00,65.0,-23.0,27.90,NE,45,0.0,0.0,0,0.00,,,0.00,Rainwise IP-100,2013-06-05 07:06:00,
2013-06-05 03:11:00,65.0,-23.0,27.90,NE,45,0.0,0.0,0,0.00,,,0.00,Rainwise IP-100,2013-06-05 07:11:00,
2013-06-05 03:16:00,65.0,-23.0,27.90,NE,45,0.0,0.0,0,0.00,,,0.00,Rainwise IP-100,2013-06-05 07:16:00,
2013-06-05 03:21:00,65.0,-23.0,27.90,NE,45,0.0,0.0,0,0.00,,,0.00,Rainwise IP-100,2013-06-05 07:21:00,
2013-06-05 03:26:00,65.0,-23.0,27.90,NE,45,0.0,0.0,0,0.00,,,0.00,Rainwise IP-100,2013-06-05 07:26:00,
2013-06-05 03:31:00,65.0,-23.0,27.90,NE,45,0.0,0.0,0,0.00,,,0.00,Rainwise IP-100,2013-06-05 07:31:00,
2013-06-05 03:36:00,65.0,-23.0,27.90,NE,45,0.0,0.0,0,0.00,,,0.00,Rainwise IP-100,2013-06-05 07:36:00,
2013-06-05 03:41:00,65.0,-23.0,27.90,NE,45,0.0,0.0,0,0.00,,,0.00,Rainwise IP-100,2013-06-05 07:41:00,
2013-06-05 03:46:00,65.0,-23.0,27.90,NE,45,0.0,0.0,0,0.00,,,0.00,Rainwise IP-100,2013-06-05 07:46:00,
2013-06-05 03:51:00,65.0,-23.0,27.91,NE,45,0.0,0.0,0,0.00,,,0.00,Rainwise IP-100,2013-06-05 07:51:00,
2013-06-05 03:56:00,65.0,-23.0,27.91,NE,45,0.0,0.0,0,0.00,,,0.00,Rainwise IP-100,2013-06-05 07:56:00,
2013-06-05 04:01:00,65.0,-23.0,27.90,NE,45,0.0,0.0,0,0.00,,,0.00,Rainwise IP-100,2013-06-05 08:01:00,
2013-06-05 04:06:00,65.0,-23.0,27.90,NE,45,0.0,0.0,0,0.00,,,0.00,Rainwise IP-100,2013-06-05 08:06:00,
2013-06-05 04:11:00,65.0,-23.0,27.91,NE,45,0.0,0.0,0,0.00,,,0.00,Rainwise IP-100,2013-06-05 08:11:00,
2013-06-05 04:16:00,65.0,-23.0,27.91,NE,45,0.0,0.0,0,0.00,,,0.00,Rainwise IP-100,2013-06-05 08:16:00,
2013-06-05 04:21:00,65.0,-23.0,27.91,NE,45,0.0,0.0,0,0.00,,,0.00,Rainwise IP-100,2013-06-05 08:21:00,
2013-06-05 04:26:00,64.0,-23.0,27.91,NE,45,0.0,0.0,0,0.00,,,0.00,Rainwise IP-100,2013-06-05 08:26:00,
2013-06-05 04:31:00,65.0,-23.0,27.91,NE,45,0.0,0.0,0,0.00,,,0.00,Rainwise IP-100,2013-06-05 08:31:00,
2013-06-05 04:36:00,64.0,-23.0,27.91,NE,45,0.0,0.0,0,0.00,,,0.00,Rainwise IP-100,2013-06-05 08:36:00,
2013-06-05 04:41:00,65.0,-23.0,27.90,NE,45,0.0,0.0,0,0.00,,,0.00,Rainwise IP-100,2013-06-05 08:41:00,
2013-06-05 04:46:00,64.0,-23.0,27.90,NE,45,0.0,0.0,0,0.00,,,0.00,Rainwise IP-100,2013-06-05 08:46:00,
2013-06-05 04:51:00,64.0,-23.0,27.92,NE,45,0.0,0.0,0,0.00,,,0.00,Rainwise IP-100,2013-06-05 08:51:00,
2013-06-05 04:56:00,64.0,-23.0,27.92,NE,45,0.0,0.0,0,0.00,,,0.00,Rainwise IP-100,2013-06-05 08:56:00,
2013-06-05 05:01:00,64.0,-23.0,27.92,NE,45,0.0,0.0,0,0.00,,,0.00,Rainwise IP-100,2013-06-05 09:01:00,
2013-06-05 05:06:00,64.0,-23.0,27.92,NE,45,0.0,0.0,0,0.00,,,0.00,Rainwise IP-100,2013-06-05 09:06:00,
2013-06-05 05:11:00,64.0,-23.0,27.92,NE,45,0.0,0.0,0,0.00,,,0.00,Rainwise IP-100,2013-06-05 09:11:00,
2013-06-05 05:16:00,64.0,-23.0,27.92,NE,45,0.0,0.0,0,0.00,,,0.00,Rainwise IP-100,2013-06-05 09:16:00,
2013-06-05 05:21:00,64.0,-23.0,27.92,NE,45,0.0,0.0,0,0.00,,,0.00,Rainwise IP-100,2013-06-05 09:21:00,
2013-06-05 05:26:00,63.0,-23.0,27.92,NE,45,0.0,0.0,0,0.00,,,0.00,Rainwise IP-100,2013-06-05 09:26:00,
2013-06-05 05:32:00,64.0,-23.0,27.91,SSE,157,0.0,1.0,0,0.00,,,0.00,Rainwise IP-100,2013-06-05 09:32:00,
2013-06-05 05:37:00,63.0,-23.0,27.91,SSE,157,0.0,0.0,0,0.00,,,0.00,Rainwise IP-100,2013-06-05 09:37:00,
2013-06-05 05:42:00,63.0,-23.0,27.92,SSE,157,0.0,0.0,0,0.00,,,0.00,Rainwise IP-100,2013-06-05 09:42:00,
2013-06-05 05:47:00,63.0,-23.0,27.92,SSE,157,0.0,0.0,0,0.00,,,0.00,Rainwise IP-100,2013-06-05 09:47:00,
2013-06-05 05:52:00,63.0,-23.0,27.92,SSE,157,0.0,0.0,0,0.00,,,0.00,Rainwise IP-100,2013-06-05 09:52:00,
2013-06-05 05:57:00,63.0,-23.0,27.92,SSE,157,0.0,0.0,0,0.00,,,0.00,Rainwise IP-100,2013-06-05 09:57:00,
2013-06-05 06:02:00,63.0,-23.0,27.92,SSE,157,0.0,0.0,0,0.00,,,0.00,Rainwise IP-100,2013-06-05 10:02:00,
2013-06-05 06:07:00,63.0,-23.0,27.92,SSE,157,0.0,0.0,0,0.00,,,0.00,Rainwise IP-100,2013-06-05 10:07:00,
2013-06-05 06:12:00,64.0,-23.0,27.92,SSE,157,0.0,0.0,0,0.00,,,0.00,Rainwise IP-100,2013-06-05 10:12:00,
2013-06-05 06:17:00,63.0,-23.0,27.92,SSE,157,0.0,0.0,0,0.00,,,0.00,Rainwise IP-100,2013-06-05 10:17:00,
2013-06-05 06:22:00,64.0,-23.0,27.92,SSE,157,0.0,0.0,0,0.00,,,0.00,Rainwise IP-100,2013-06-05 10:22:00,
2013-06-05 06:27:00,63.0,-23.0,27.92,SSE,157,0.0,0.0,0,0.00,,,0.00,Rainwise IP-100,2013-06-05 10:27:00,
2013-06-05 06:32:00,64.0,-23.0,27.93,SSE,157,0.0,0.0,0,0.00,,,0.00,Rainwise IP-100,2013-06-05 10:32:00,
2013-06-05 06:37:00,64.0,-23.0,27.93,SSE,157,0.0,0.0,0,0.00,,,0.00,Rainwise IP-100,2013-06-05 10:37:00,
2013-06-05 06:42:00,64.0,-23.0,27.93,SSE,157,0.0,0.0,0,0.00,,,0.00,Rainwise IP-100,2013-06-05 10:42:00,
2013-06-05 06:47:00,64.0,-23.0,27.93,SSE,157,0.0,0.0,0,0.00,,,0.00,Rainwise IP-100,2013-06-05 10:47:00,
2013-06-05 06:52:00,64.0,-23.0,27.93,SSE,157,0.0,0.0,0,0.00,,,0.00,Rainwise IP-100,2013-06-05 10:52:00,
2013-06-05 06:57:00,64.0,-23.0,27.93,SSE,157,0.0,0.0,0,0.00,,,0.00,Rainwise IP-100,2013-06-05 10:57:00,
2013-06-05 07:02:00,64.0,-23.0,27.92,SSE,157,0.0,0.0,0,0.00,,,0.00,Rainwise IP-100,2013-06-05 11:02:00,
2013-06-05 07:07:00,64.0,-23.0,27.92,SSE,157,0.0,0.0,0,0.00,,,0.00,Rainwise IP-100,2013-06-05 11:07:00,
2013-06-05 07:12:00,64.0,-23.0,27.92,SSE,157,0.0,0.0,0,0.00,,,0.00,Rainwise IP-100,2013-06-05 11:12:00,
2013-06-05 07:17:00,64.0,-23.0,27.92,SSE,157,0.0,0.0,0,0.00,,,0.00,Rainwise IP-100,2013-06-05 11:17:00,
2013-06-05 07:22:00,64.0,-23.0,27.92,SSE,157,0.0,0.0,0,0.00,,,0.00,Rainwise IP-100,2013-06-05 11:22:00,
2013-06-05 07:27:00,64.0,-23.0,27.92,SSE,157,0.0,0.0,0,0.00,,,0.00,Rainwise IP-100,2013-06-05 11:27:00,
2013-06-05 07:30:00,64.0,-23.0,27.92,SSE,157,0.0,0.0,0,0.00,,,0.00,Rainwise IP-100,2013-06-05 11:30:00,
2013-06-05 07:35:00,65.0,-23.0,27.93,SSE,157,0.0,2.0,0,0.00,,,0.00,Rainwise IP-100,2013-06-05 11:35:00,
2013-06-05 07:40:00,65.0,-23.0,27.93,SSE,157,0.0,2.0,0,0.00,,,0.00,Rainwise IP-100,2013-06-05 11:40:00,
2013-06-05 07:45:00,65.0,-23.0,27.94,SSE,157,0.0,0.0,0,0.00,,,0.00,Rainwise IP-100,2013-06-05 11:45:00,
2013-06-05 07:50:00,65.0,-23.0,27.94,SSE,157,0.0,0.0,0,0.00,,,0.00,Rainwise IP-100,2013-06-05 11:50:00,
2013-06-05 07:55:00,65.0,-23.0,27.94,SSE,157,0.0,0.0,0,0.00,,,0.00,Rainwise IP-100,2013-06-05 11:55:00,
2013-06-05 08:00:00,65.0,-23.0,27.94,SSE,157,0.0,0.0,0,0.00,,,0.00,Rainwise IP-100,2013-06-05 12:00:00,
2013-06-05 08:05:00,65.0,-23.0,27.94,SSE,157,0.0,0.0,0,0.00,,,0.00,Rainwise IP-100,2013-06-05 12:05:00,
2013-06-05 08:10:00,65.0,-23.0,27.94,SSE,157,0.0,0.0,0,0.00,,,0.00,Rainwise IP-100,2013-06-05 12:10:00,
2013-06-05 08:15:00,65.0,-23.0,27.94,SSE,157,0.0,0.0,0,0.00,,,0.00,Rainwise IP-100,2013-06-05 12:15:00,
2013-06-05 08:20:00,65.0,-23.0,27.94,SSE,157,0.0,0.0,0,0.00,,,0.00,Rainwise IP-100,2013-06-05 12:20:00,
2013-06-05 08:25:00,65.0,-23.0,27.94,SSE,157,0.0,0.0,0,0.00,,,0.00,Rainwise IP-100,2013-06-05 12:25:00,
2013-06-05 08:30:00,66.0,-23.0,27.94,SSE,157,0.0,0.0,0,0.00,,,0.00,Rainwise IP-100,2013-06-05 12:30:00,
2013-06-05 08:35:00,66.0,-23.0,27.93,SSE,157,0.0,0.0,0,0.00,,,0.00,Rainwise IP-100,2013-06-05 12:35:00,
2013-06-05 08:40:00,67.0,-23.0,27.93,SSE,157,0.0,0.0,0,0.00,,,0.00,Rainwise IP-100,2013-06-05 12:40:00,
2013-06-05 08:45:00,68.0,-23.0,27.93,NNE,22,0.0,1.0,0,0.00,,,0.00,Rainwise IP-100,2013-06-05 12:45:00,
2013-06-05 08:50:00,68.0,-23.0,27.93,North,360,0.0,0.0,0,0.00,,,0.00,Rainwise IP-100,2013-06-05 12:50:00,
2013-06-05 08:55:00,69.0,-23.0,27.92,North,360,0.0,0.0,0,0.00,,,0.00,Rainwise IP-100,2013-06-05 12:55:00,
2013-06-05 09:00:00,70.0,-23.0,27.92,SE,135,0.0,1.0,0,0.00,,,0.00,Rainwise IP-100,2013-06-05 13:00:00,
2013-06-05 09:05:00,70.0,-23.0,27.92,ENE,67,0.0,0.0,0,0.00,,,0.00,Rainwise IP-100,2013-06-05 13:05:00,
2013-06-05 09:10:00,70.0,18.0,27.92,ENE,67,0.0,0.0,13,0.00,,,0.00,Rainwise IP-100,2013-06-05 13:10:00,
2013-06-05 09:15:00,70.0,18.0,27.93,ENE,67,0.0,0.0,14,0.00,,,0.00,Rainwise IP-100,2013-06-05 13:15:00,
2013-06-05 09:20:00,70.0,29.0,27.93,ENE,67,0.0,0.0,22,0.00,,,0.00,Rainwise IP-100,2013-06-05 13:20:00,
2013-06-05 09:25:00,70.0,51.0,27.92,ENE,67,0.0,0.0,51,0.00,,,0.00,Rainwise IP-100,2013-06-05 13:25:00,
2013-06-05 09:30:00,70.0,47.5,27.92,SE,135,0.0,1.0,44,0.00,,,0.00,Rainwise IP-100,2013-06-05 13:30:00,
2013-06-05 09:35:00,70.0,47.5,27.93,South,180,0.0,2.0,44,0.00,,,0.00,Rainwise IP-100,2013-06-05 13:35:00,
2013-06-05 09:40:00,70.0,52.0,27.93,SSW,202,0.0,3.0,53,0.00,,,0.00,Rainwise IP-100,2013-06-05 13:40:00,
2013-06-05 09:45:00,70.0,52.0,27.93,SSW,202,0.0,3.0,53,0.00,,,0.00,Rainwise IP-100,2013-06-05 13:45:00,
2013-06-05 09:50:00,70.0,52.0,27.93,SSW,202,1.0,3.0,53,0.00,,,0.00,Rainwise IP-100,2013-06-05 13:50:00,
2013-06-05 09:55:00,69.0,51.0,27.93,SSE,157,0.0,3.0,54,0.00,,,0.00,Rainwise IP-100,2013-06-05 13:55:00,
2013-06-05 10:00:00,70.0,53.0,27.93,South,180,2.0,3.0,54,0.00,,,0.00,Rainwise IP-100,2013-06-05 14:00:00,
2013-06-05 10:05:00,70.0,50.5,27.93,South,180,0.0,2.0,50,0.00,,,0.00,Rainwise IP-100,2013-06-05 14:05:00,
2013-06-05 10:10:00,71.0,53.5,27.93,ESE,112,0.0,0.0,54,0.00,,,0.00,Rainwise IP-100,2013-06-05 14:10:00,
2013-06-05 10:15:00,71.0,57.5,27.93,NNE,22,0.0,0.0,63,0.00,,,0.00,Rainwise IP-100,2013-06-05 14:15:00,
2013-06-05 10:20:00,71.0,63.5,27.93,ESE,112,0.0,3.0,78,0.00,,,0.00,Rainwise IP-100,2013-06-05 14:20:00,
2013-06-05 10:25:00,71.0,64.5,27.91,ESE,112,0.0,3.0,80,0.00,,,0.00,Rainwise IP-100,2013-06-05 14:25:00,
2013-06-05 10:30:00,72.0,65.5,27.91,ESE,112,0.0,2.0,80,0.00,,,0.00,Rainwise IP-100,2013-06-05 14:30:00,
2013-06-05 10:35:00,73.0,68.0,27.92,ENE,67,0.0,1.0,84,0.00,,,0.00,Rainwise IP-100,2013-06-05 14:35:00,
2013-06-05 10:40:00,74.0,71.3,27.92,ENE,67,0.0,0.0,91,0.00,,,0.00,Rainwise IP-100,2013-06-05 14:40:00,
2013-06-05 10:45:00,75.0,73.0,27.90,SSE,157,0.0,4.0,93,0.00,,,0.00,Rainwise IP-100,2013-06-05 14:45:00,
2013-06-05 10:50:00,76.0,74.3,27.90,NNW,337,0.0,1.0,96,0.00,,,0.00,Rainwise IP-100,2013-06-05 14:50:00,
2013-06-05 10:55:00,76.0,74.7,27.90,SSE,157,1.0,2.0,97,0.00,,,0.00,Rainwise IP-100,2013-06-05 14:55:00,
2013-06-05 11:00:00,75.0,73.7,27.90,East,90,0.0,3.0,96,0.00,,,0.00,Rainwise IP-100,2013-06-05 15:00:00,
2013-06-05 11:05:00,75.0,73.7,27.90,SSE,157,1.0,5.0,95,0.00,,,0.00,Rainwise IP-100,2013-06-05 15:05:00,
2013-06-05 11:10:00,75.0,73.7,27.90,SSE,157,2.0,4.0,96,0.00,,,0.00,Rainwise IP-100,2013-06-05 15:10:00,
2013-06-05 11:15:00,75.0,73.7,27.91,South,180,0.0,3.0,96,0.00,,,0.00,Rainwise IP-100,2013-06-05 15:15:00,
2013-06-05 11:21:00,75.0,73.7,27.91,SE,135,3.0,4.0,96,0.00,,,0.00,Rainwise IP-100,2013-06-05 15:21:00,
2013-06-05 11:26:00,74.0,73.0,27.90,SE,135,0.0,6.0,96,0.00,,,0.00,Rainwise IP-100,2013-06-05 15:26:00,
2013-06-05 11:31:00,74.0,73.0,27.90,ENE,67,0.0,3.0,96,0.00,,,0.00,Rainwise IP-100,2013-06-05 15:31:00,
2013-06-05 11:36:00,74.0,73.0,27.91,SSE,157,0.0,0.0,96,0.00,,,0.00,Rainwise IP-100,2013-06-05 15:36:00,
2013-06-05 11:41:00,75.0,73.7,27.91,SW,225,1.0,4.0,96,0.00,,,0.00,Rainwise IP-100,2013-06-05 15:41:00,
2013-06-05 11:46:00,76.0,74.3,27.90,SE,135,0.0,4.0,96,0.00,,,0.00,Rainwise IP-100,2013-06-05 15:46:00,
2013-06-05 11:51:00,76.0,74.7,27.90,ESE,112,0.0,2.0,97,0.00,,,0.00,Rainwise IP-100,2013-06-05 15:51:00,
2013-06-05 11:56:00,75.0,73.7,27.90,NNE,22,0.0,3.0,96,0.00,,,0.00,Rainwise IP-100,2013-06-05 15:56:00,
2013-06-05 12:01:00,75.0,73.7,27.90,WNW,292,0.0,4.0,96,0.00,,,0.00,Rainwise IP-100,2013-06-05 16:01:00,
2013-06-05 12:06:00,75.0,73.7,27.90,NNE,22,0.0,3.0,96,0.00,,,0.00,Rainwise IP-100,2013-06-05 16:06:00,
2013-06-05 12:11:00,75.0,73.7,27.90,North,360,2.0,4.0,96,0.00,,,0.00,Rainwise IP-100,2013-06-05 16:11:00,
2013-06-05 12:16:00,76.0,74.7,27.89,ENE,67,0.0,3.0,97,0.00,,,0.00,Rainwise IP-100,2013-06-05 16:16:00,
2013-06-05 12:21:00,77.0,76.0,27.89,NNE,22,0.0,3.0,96,0.00,,,0.00,Rainwise IP-100,2013-06-05 16:21:00,
2013-06-05 12:26:00,76.0,74.7,27.89,NNE,22,0.0,3.0,97,0.00,,,0.00,Rainwise IP-100,2013-06-05 16:26:00,
2013-06-05 12:31:00,75.0,73.7,27.89,NNE,22,0.0,4.0,96,0.00,,,0.00,Rainwise IP-100,2013-06-05 16:31:00,
2013-06-05 12:36:00,75.0,74.0,27.90,SSE,157,2.0,2.0,97,0.00,,,0.00,Rainwise IP-100,2013-06-05 16:36:00,
2013-06-05 12:41:00,76.0,74.7,27.90,SE,135,0.0,3.0,97,0.00,,,0.00,Rainwise IP-100,2013-06-05 16:41:00,
2013-06-05 12:46:00,75.0,73.7,27.89,SSW,202,0.0,3.0,96,0.00,,,0.00,Rainwise IP-100,2013-06-05 16:46:00,
2013-06-05 12:51:00,75.0,73.7,27.89,South,180,0.0,3.0,96,0.00,,,0.00,Rainwise IP-100,2013-06-05 16:51:00,
2013-06-05 12:56:00,76.0,74.7,27.89,ESE,112,3.0,4.0,97,0.00,,,0.00,Rainwise IP-100,2013-06-05 16:56:00,
2013-06-05 13:01:00,76.0,74.3,27.89,SSW,202,2.0,4.0,96,0.00,,,0.00,Rainwise IP-100,2013-06-05 17:01:00,
2013-06-05 13:06:00,76.0,74.7,27.89,SSE,157,0.0,4.0,97,0.00,,,0.00,Rainwise IP-100,2013-06-05 17:06:00,
2013-06-05 13:11:00,75.0,74.0,27.89,SSE,157,0.0,5.0,97,0.00,,,0.00,Rainwise IP-100,2013-06-05 17:11:00,
2013-06-05 13:16:00,75.0,74.0,27.90,North,360,0.0,6.0,97,0.00,,,0.00,Rainwise IP-100,2013-06-05 17:16:00,
2013-06-05 13:21:00,76.0,75.0,27.90,SSE,157,0.0,3.0,98,0.00,,,0.00,Rainwise IP-100,2013-06-05 17:21:00,
2013-06-05 13:26:00,76.0,74.7,27.89,SE,135,3.0,3.0,97,0.00,,,0.00,Rainwise IP-100,2013-06-05 17:26:00,
2013-06-05 13:31:00,76.0,74.3,27.89,SSE,157,2.0,5.0,96,0.00,,,0.00,Rainwise IP-100,2013-06-05 17:31:00,
2013-06-05 13:36:00,76.0,75.0,27.89,SE,135,0.0,5.0,98,0.00,,,0.00,Rainwise IP-100,2013-06-05 17:36:00,
2013-06-05 13:41:00,77.0,76.3,27.89,NNW,337,0.0,3.0,97,0.00,,,0.00,Rainwise IP-100,2013-06-05 17:41:00,
2013-06-05 13:46:00,78.0,76.8,27.88,SSE,157,0.0,4.0,96,0.00,,,0.00,Rainwise IP-100,2013-06-05 17:46:00,
2013-06-05 13:51:00,78.0,76.0,27.88,SE,135,1.0,4.0,93,0.00,,,0.00,Rainwise IP-100,2013-06-05 17:51:00,
2013-06-05 13:56:00,78.0,76.0,27.87,SSE,157,0.0,5.0,93,0.00,,,0.00,Rainwise IP-100,2013-06-05 17:56:00,
2013-06-05 14:01:00,78.0,76.0,27.87,ESE,112,4.0,5.0,93,0.00,,,0.00,Rainwise IP-100,2013-06-05 18:01:00,
2013-06-05 14:06:00,78.0,76.0,27.87,SSE,157,3.0,4.0,93,0.00,,,0.00,Rainwise IP-100,2013-06-05 18:06:00,
2013-06-05 14:11:00,78.0,75.5,27.87,NNE,22,0.0,5.0,92,0.00,,,0.00,Rainwise IP-100,2013-06-05 18:11:00,
2013-06-05 14:16:00,78.0,74.7,27.86,East,90,0.0,5.0,90,0.00,,,0.00,Rainwise IP-100,2013-06-05 18:16:00,
2013-06-05 14:21:00,78.0,74.7,27.86,North,360,0.0,5.0,90,0.00,,,0.00,Rainwise IP-100,2013-06-05 18:21:00,
2013-06-05 14:26:00,78.0,74.7,27.86,North,360,3.0,5.0,90,0.00,,,0.00,Rainwise IP-100,2013-06-05 18:26:00,
2013-06-05 14:31:00,78.0,75.0,27.86,ESE,112,0.0,4.0,91,0.00,,,0.00,Rainwise IP-100,2013-06-05 18:31:00,
2013-06-05 14:36:00,78.0,75.5,27.86,SE,135,0.0,5.0,92,0.00,,,0.00,Rainwise IP-100,2013-06-05 18:36:00,
2013-06-05 14:41:00,78.0,75.5,27.86,North,360,3.0,5.0,92,0.00,,,0.00,Rainwise IP-100,2013-06-05 18:41:00,
2013-06-05 14:46:00,79.0,76.3,27.85,NNE,22,2.0,5.0,91,0.00,,,0.00,Rainwise IP-100,2013-06-05 18:46:00,
2013-06-05 14:51:00,79.0,74.7,27.85,NNE,22,0.0,3.0,87,0.00,,,0.00,Rainwise IP-100,2013-06-05 18:51:00,
2013-06-05 14:56:00,78.0,74.7,27.84,NNE,22,1.0,5.0,90,0.00,,,0.00,Rainwise IP-100,2013-06-05 18:56:00,
2013-06-05 15:01:00,78.0,74.3,27.84,SSE,157,0.0,3.0,89,0.00,,,0.00,Rainwise IP-100,2013-06-05 19:01:00,
2013-06-05 15:06:00,77.0,74.3,27.84,SE,135,3.0,8.0,91,0.00,,,0.00,Rainwise IP-100,2013-06-05 19:06:00,
2013-06-05 15:11:00,78.0,74.0,27.84,SSE,157,0.0,5.0,88,0.00,,,0.00,Rainwise IP-100,2013-06-05 19:11:00,
2013-06-05 15:16:00,78.0,75.0,27.84,NNE,22,0.0,4.0,91,0.00,,,0.00,Rainwise IP-100,2013-06-05 19:16:00,
2013-06-05 15:21:00,78.0,74.0,27.84,North,360,1.0,6.0,88,0.00,,,0.00,Rainwise IP-100,2013-06-05 19:21:00,
2013-06-05 15:26:00,78.0,74.0,27.83,NNE,22,0.0,3.0,88,0.00,,,0.00,Rainwise IP-100,2013-06-05 19:26:00,
2013-06-05 15:31:00,78.0,73.7,27.83,NNE,22,0.0,5.0,87,0.00,,,0.00,Rainwise IP-100,2013-06-05 19:31:00,
2013-06-05 15:36:00,77.0,74.0,27.83,NNE,22,0.0,4.0,90,0.00,,,0.00,Rainwise IP-100,2013-06-05 19:36:00,
2013-06-05 15:41:00,77.0,74.3,27.83,ESE,112,0.0,5.0,92,0.00,,,0.00,Rainwise IP-100,2013-06-05 19:41:00,
2013-06-05 15:46:00,76.0,73.7,27.83,NNE,22,1.0,3.0,93,0.00,,,0.00,Rainwise IP-100,2013-06-05 19:46:00,
2013-06-05 15:51:00,76.0,74.3,27.83,SSW,202,0.0,4.0,95,0.00,,,0.00,Rainwise IP-100,2013-06-05 19:51:00,
2013-06-05 15:56:00,77.0,74.3,27.84,SSW,202,1.0,5.0,92,0.00,,,0.00,Rainwise IP-100,2013-06-05 19:56:00,
2013-06-05 16:01:00,76.0,73.7,27.84,ESE,112,1.0,5.0,93,0.00,,,0.00,Rainwise IP-100,2013-06-05 20:01:00,
2013-06-05 16:06:00,77.0,76.0,27.84,ESE,112,0.0,4.0,96,0.00,,,0.00,Rainwise IP-100,2013-06-05 20:06:00,
2013-06-05 16:11:00,78.0,75.0,27.84,ENE,67,0.0,4.0,91,0.00,,,0.00,Rainwise IP-100,2013-06-05 20:11:00,
2013-06-05 16:16:00,79.0,75.0,27.83,ESE,112,3.0,3.0,88,0.00,,,0.00,Rainwise IP-100,2013-06-05 20:16:00,
2013-06-05 16:21:00,79.0,76.0,27.83,NNE,22,0.0,3.0,90,0.00,,,0.00,Rainwise IP-100,2013-06-05 20:21:00,
2013-06-05 16:26:00,79.0,74.0,27.82,ESE,112,2.0,5.0,85,0.00,,,0.00,Rainwise IP-100,2013-06-05 20:26:00,
2013-06-05 16:31:00,79.0,75.0,27.82,SE,135,0.0,5.0,88,0.00,,,0.00,Rainwise IP-100,2013-06-05 20:31:00,
2013-06-05 16:36:00,79.0,75.0,27.82,NNW,337,1.0,3.0,88,0.00,,,0.00,Rainwise IP-100,2013-06-05 20:36:00,
2013-06-05 16:41:00,78.0,74.0,27.82,East,90,0.0,4.0,88,0.00,,,0.00,Rainwise IP-100,2013-06-05 20:41:00,
2013-06-05 16:46:00,77.0,74.3,27.82,NNE,22,2.0,4.0,91,0.00,,,0.00,Rainwise IP-100,2013-06-05 20:46:00,
2013-06-05 16:51:00,77.0,74.3,27.82,NNE,22,2.0,2.0,91,0.00,,,0.00,Rainwise IP-100,2013-06-05 20:51:00,
2013-06-05 16:56:00,76.0,74.3,27.83,SE,135,0.0,4.0,96,0.00,,,0.00,Rainwise IP-100,2013-06-05 20:56:00,
2013-06-05 17:01:00,76.0,74.3,27.83,NNE,22,0.0,4.0,96,0.00,,,0.00,Rainwise IP-100,2013-06-05 21:01:00,
2013-06-05 17:06:00,76.0,74.7,27.82,NNE,22,0.0,3.0,97,0.00,,,0.00,Rainwise IP-100,2013-06-05 21:06:00,
2013-06-05 17:11:00,76.0,74.7,27.82,NNE,22,4.0,5.0,97,0.00,,,0.00,Rainwise IP-100,2013-06-05 21:11:00,
2013-06-05 17:16:00,75.0,73.7,27.82,NNE,22,1.0,5.0,96,0.00,,,0.00,Rainwise IP-100,2013-06-05 21:16:00,
2013-06-05 17:21:00,74.0,73.0,27.82,SSW,202,3.0,5.0,97,0.00,,,0.00,Rainwise IP-100,2013-06-05 21:21:00,
2013-06-05 17:26:00,74.0,73.3,27.82,NE,45,1.0,4.0,98,0.00,,,0.00,Rainwise IP-100,2013-06-05 21:26:00,
2013-06-05 17:31:00,74.0,73.3,27.82,West,270,0.0,3.0,98,0.00,,,0.00,Rainwise IP-100,2013-06-05 21:31:00,
2013-06-05 17:36:00,74.0,73.3,27.82,NNE,22,2.0,3.0,98,0.00,,,0.00,Rainwise IP-100,2013-06-05 21:36:00,
2013-06-05 17:41:00,74.0,73.3,27.82,NNE,22,0.0,3.0,98,0.00,,,0.00,Rainwise IP-100,2013-06-05 21:41:00,
2013-06-05 17:46:00,74.0,73.3,27.82,ENE,67,0.0,3.0,98,0.00,,,0.00,Rainwise IP-100,2013-06-05 21:46:00,
2013-06-05 17:51:00,74.0,73.0,27.82,NNE,22,0.0,3.0,97,0.00,,,0.00,Rainwise IP-100,2013-06-05 21:51:00,
2013-06-05 17:56:00,73.0,72.0,27.81,South,180,0.0,4.0,96,0.00,,,0.00,Rainwise IP-100,2013-06-05 21:56:00,
2013-06-05 18:01:00,73.0,72.3,27.81,NNE,22,0.0,5.0,97,0.00,,,0.00,Rainwise IP-100,2013-06-05 22:01:00,
2013-06-05 18:06:00,73.0,71.7,27.82,ENE,67,0.0,4.0,95,0.00,,,0.00,Rainwise IP-100,2013-06-05 22:06:00,
2013-06-05 18:11:00,73.0,71.7,27.82,NNE,22,2.0,5.0,95,0.00,,,0.00,Rainwise IP-100,2013-06-05 22:11:00,
2013-06-05 18:16:00,73.0,72.0,27.80,ENE,67,0.0,2.0,96,0.00,,,0.00,Rainwise IP-100,2013-06-05 22:16:00,
2013-06-05 19:40:00,70.0,61.0,27.82,NNE,22,0.0,3.0,73,0.00,,,0.00,Rainwise IP-100,2013-06-05 23:40:00,
2013-06-05 19:57:00,69.0,56.5,27.82,North,360,1.0,0.0,65,0.00,,,0.00,Rainwise IP-100,2013-06-05 23:57:00,
2013-06-05 20:02:00,69.0,56.5,27.82,North,360,1.0,2.0,65,0.00,,,0.00,Rainwise IP-100,2013-06-06 00:02:00,
2013-06-05 20:07:00,69.0,51.0,27.82,North,360,0.0,2.0,53,0.00,,,0.00,Rainwise IP-100,2013-06-06 00:07:00,
2013-06-05 20:21:00,68.0,-23.0,27.84,ENE,67,2.0,0.0,0,0.00,,,0.05,Rainwise IP-100,2013-06-06 00:21:00,
2013-06-05 20:26:00,67.0,-23.0,27.84,ESE,112,0.0,5.0,0,0.30,,,0.05,Rainwise IP-100,2013-06-06 00:26:00,
2013-06-05 20:31:00,66.0,-23.0,27.84,NNE,22,0.0,1.0,0,0.54,,,0.09,Rainwise IP-100,2013-06-06 00:31:00,
2013-06-05 20:36:00,66.0,-23.0,27.85,North,360,3.0,4.0,0,0.42,,,0.12,Rainwise IP-100,2013-06-06 00:36:00,
2013-06-05 20:41:00,65.0,-23.0,27.86,SE,135,0.0,5.0,0,0.30,,,0.15,Rainwise IP-100,2013-06-06 00:41:00,
2013-06-05 20:46:00,65.0,-23.0,27.86,East,90,0.0,8.0,0,0.24,,,0.16,Rainwise IP-100,2013-06-06 00:46:00,
2013-06-05 20:52:00,65.0,-23.0,27.86,ESE,112,4.0,8.0,0,0.06,,,0.18,Rainwise IP-100,2013-06-06 00:52:00,
2013-06-05 20:57:00,64.0,-23.0,27.86,SSE,157,0.0,8.0,0,0.12,,,0.19,Rainwise IP-100,2013-06-06 00:57:00,
2013-06-05 21:02:00,64.0,-23.0,27.86,South,180,0.0,3.0,0,0.18,,,0.19,Rainwise IP-100,2013-06-06 01:02:00,
2013-06-05 21:07:00,64.0,-23.0,27.86,WSW,247,0.0,3.0,0,0.12,,,0.20,Rainwise IP-100,2013-06-06 01:07:00,
2013-06-05 21:12:00,63.0,-23.0,27.86,SSW,202,0.0,3.0,0,0.12,,,0.22,Rainwise IP-100,2013-06-06 01:12:00,
2013-06-05 21:17:00,63.0,-23.0,27.86,ESE,112,0.0,3.0,0,0.18,,,0.24,Rainwise IP-100,2013-06-06 01:17:00,
2013-06-05 21:22:00,63.0,-23.0,27.86,SSW,202,0.0,2.0,0,0.18,,,0.24,Rainwise IP-100,2013-06-06 01:22:00,
2013-06-05 21:27:00,63.0,-23.0,27.87,SSE,157,3.0,4.0,0,0.12,,,0.25,Rainwise IP-100,2013-06-06 01:27:00,
2013-06-05 21:32:00,63.0,-23.0,27.88,ESE,112,0.0,3.0,0,0.06,,,0.25,Rainwise IP-100,2013-06-06 01:32:00,
2013-06-05 21:37:00,63.0,-23.0,27.88,East,90,3.0,3.0,0,0.00,,,0.25,Rainwise IP-100,2013-06-06 01:37:00,
2013-06-05 21:42:00,63.0,-23.0,27.88,SSE,157,0.0,4.0,0,0.00,,,0.26,Rainwise IP-100,2013-06-06 01:42:00,
2013-06-05 21:47:00,63.0,-23.0,27.88,SSW,202,0.0,3.0,0,0.06,,,0.26,Rainwise IP-100,2013-06-06 01:47:00,
2013-06-05 21:52:00,63.0,-23.0,27.88,SSW,202,1.0,3.0,0,0.06,,,0.26,Rainwise IP-100,2013-06-06 01:52:00,
2013-06-05 21:57:00,63.0,-23.0,27.88,South,180,0.0,2.0,0,0.00,,,0.26,Rainwise IP-100,2013-06-06 01:57:00,
2013-06-05 22:02:00,63.0,-23.0,27.87,South,180,0.0,0.0,0,0.00,,,0.26,Rainwise IP-100,2013-06-06 02:02:00,
2013-06-05 22:07:00,63.0,-23.0,27.87,South,180,0.0,0.0,0,0.00,,,0.26,Rainwise IP-100,2013-06-06 02:07:00,
2013-06-05 22:12:00,63.0,-23.0,27.87,NNE,22,0.0,3.0,0,0.00,,,0.26,Rainwise IP-100,2013-06-06 02:12:00,
2013-06-05 22:17:00,63.0,-23.0,27.87,NNE,22,0.0,0.0,0,0.00,,,0.26,Rainwise IP-100,2013-06-06 02:17:00,
2013-06-05 22:22:00,63.0,-23.0,27.87,NNE,22,0.0,0.0,0,0.00,,,0.26,Rainwise IP-100,2013-06-06 02:22:00,
2013-06-05 22:27:00,63.0,-23.0,27.87,NNE,22,0.0,2.0,0,0.00,,,0.26,Rainwise IP-100,2013-06-06 02:27:00,
2013-06-05 22:32:00,63.0,-23.0,27.87,NNE,22,0.0,0.0,0,0.00,,,0.26,Rainwise IP-100,2013-06-06 02:32:00,
2013-06-05 22:37:00,63.0,-23.0,27.87,NNE,22,0.0,0.0,0,0.00,,,0.26,Rainwise IP-100,2013-06-06 02:37:00,
2013-06-05 22:42:00,63.0,-23.0,27.87,NNE,22,0.0,0.0,0,0.00,,,0.26,Rainwise IP-100,2013-06-06 02:42:00,
2013-06-05 22:47:00,63.0,-23.0,27.87,NNE,22,0.0,0.0,0,0.00,,,0.26,Rainwise IP-100,2013-06-06 02:47:00,
2013-06-05 22:52:00,63.0,-23.0,27.87,NNE,22,0.0,0.0,0,0.00,,,0.26,Rainwise IP-100,2013-06-06 02:52:00,
2013-06-05 22:57:00,63.0,-23.0,27.87,NNE,22,0.0,0.0,0,0.00,,,0.26,Rainwise IP-100,2013-06-06 02:57:00,
2013-06-05 23:02:00,63.0,-23.0,27.87,NNE,22,0.0,0.0,0,0.00,,,0.26,Rainwise IP-100,2013-06-06 03:02:00,
2013-06-05 23:07:00,63.0,-23.0,27.87,NNE,22,0.0,0.0,0,0.00,,,0.26,Rainwise IP-100,2013-06-06 03:07:00,
2013-06-05 23:12:00,63.0,-23.0,27.87,NNE,22,0.0,0.0,0,0.00,,,0.26,Rainwise IP-100,2013-06-06 03:12:00,
2013-06-05 23:17:00,63.0,-23.0,27.87,NNE,22,0.0,0.0,0,0.00,,,0.26,Rainwise IP-100,2013-06-06 03:17:00,
2013-06-05 23:22:00,63.0,-23.0,27.87,NNE,22,0.0,0.0,0,0.00,,,0.26,Rainwise IP-100,2013-06-06 03:22:00,
2013-06-05 23:27:00,63.0,-23.0,27.87,NNE,22,0.0,0.0,0,0.00,,,0.26,Rainwise IP-100,2013-06-06 03:27:00,
2013-06-05 23:32:00,63.0,-23.0,27.86,NNE,22,0.0,0.0,0,0.00,,,0.26,Rainwise IP-100,2013-06-06 03:32:00,
2013-06-05 23:37:00,63.0,-23.0,27.86,NNE,22,0.0,0.0,0,0.00,,,0.26,Rainwise IP-100,2013-06-06 03:37:00,
2013-06-05 23:42:00,63.0,-23.0,27.86,NNE,22,0.0,0.0,0,0.00,,,0.26,Rainwise IP-100,2013-06-06 03:42:00,
2013-06-05 23:47:00,63.0,-23.0,27.86,NNE,22,0.0,0.0,0,0.00,,,0.26,Rainwise IP-100,2013-06-06 03:47:00,
2013-06-05 23:52:00,63.0,-23.0,27.85,NNE,22,0.0,0.0,0,0.00,,,0.26,Rainwise IP-100,2013-06-06 03:52:00,
2013-06-05 23:57:00,63.0,-23.0,27.85,NNE,22,0.0,0.0,0,0.00,,,0.26,Rainwise IP-100,2013-06-06 03:57:00,